Oxford, CT (06478)

12:59 PM EDT on September 22, 2014 (GMT -0400)
Wilhelm at Oxford, CT | Change Station
CLOSE
Current Station
Personal Weather Station
Location: Oxford, CT
Elevation: 541 ft
Nearby Weather Stations

Elev 541 ft 41.41 °N, 73.11 °W | Updated 11 seconds ago

Mostly Cloudy
Mostly Cloudy
71.2 °F
Feels Like 77 °F
N
1.8
Wind Variable Wind from ESE
Gusts 2.5 mph

Today
High -- | Low -- °F
--% Chance of Precip.
Yesterday
High -- | Low -- °F
Precip. -- in
6:39 AM 6:49 PM
Waning Crescent, 2% visible
Pressure 29.86 in
Visibility 10.0 miles
Clouds Mostly Cloudy 4000 ft
Heat Index 77 °F
Dew Point 53 °F
Humidity 53%
Rainfall 0.00 in
Snow Depth Not available.
UV 4 out of 12
Pollen 3.30 out of 12
Ozone Good
PM2.5 Good
Flu Activity Not available.
METAR KOXC 221550Z 32008G14KT 280V340 10SM BKN040 19/10 A2986

More Conditions Fewer Conditions

Pressure 29.86 in
Visibility 10.0 miles
Clouds Mostly Cloudy 4000 ft
Heat Index 77 °F
Dew Point 53 °F
Humidity 53%
Rainfall 0.00 in
Snow Depth Not available.
UV 4 out of 12
Pollen 3.30 out of 12
Ozone Good
PM2.5 Good
Flu Activity Not available.
METAR KOXC 221550Z 32008G14KT 280V340 10SM BKN040 19/10 A2986

More Conditions Fewer Conditions

10-Day Weather Forecast

Almanac

Astronomy

Sep. 22, 2014 Rise Set
Actual Time 6:39 AM EDT 6:49 PM EDT
Civil Twilight 6:12 AM EDT 7:17 PM EDT
Nautical Twilight 5:39 AM EDT 7:49 PM EDT
Astronomical Twilight 5:06 AM EDT 8:22 PM EDT
Moon 5:05 AM EDT 5:56 PM EDT
Length of Visible Light 13h 05m
Length of Day
12h 09m
Tomorrow will be 2m 45s shorter.
Waning Crescent, 2% of the Moon is Illuminated
Today
Waning Crescent
Sep 24
New
Oct 1
First Quarter
Oct 8
Full
Oct 15
Last Quarter

Today's Extremes

State Highs State Lows

Community

WunderPhotos

Upload Photos

1,755,480 photos uploaded!

WunderBlogs® & News

Nearby

Air Quality

  Air Quality AQ Index Pollutant
Yesterday Good
OZONE
Yesterday Good
PM10
Current Good
OZONE
Current Good
PM2.5
Monday Good
PM2.5
Monday Good
OZONE

Snow Depth

Station Depth Elevation
No new snow has been reported.

Earthquake Activity

City Distance Mag. Time & Date
No recent earthquake activity has been reported nearby.
Minimum magnitude displayed is 2.5.

Coastal Water Temperatures

Place Temperature
Bridgeport, CT 69.1 °F

Nearby Weather Stations